createdAt,value
2023-04-23T00:01:28.291Z,-24114.58
2023-04-23T00:08:15.712Z,-24113.36
2023-04-23T00:10:44.281Z,-24111.90
2023-04-23T00:13:12.673Z,-24111.03
2023-04-23T00:15:40.958Z,-24110.25
2023-04-23T00:18:09.057Z,-24109.54
2023-04-23T00:20:37.282Z,-24108.51
2023-04-23T00:23:05.562Z,-24107.79
2023-04-23T00:25:33.834Z,-24107.17
2023-04-23T00:28:02.080Z,-24106.45
2023-04-23T00:30:30.582Z,-24105.52
2023-04-23T00:32:59.160Z,-24104.59
2023-04-23T00:35:27.313Z,-24103.75
2023-04-23T00:37:55.909Z,-24102.71
2023-04-23T00:40:24.131Z,-24102.22
2023-04-23T00:42:53.872Z,-24102.13
2023-04-23T00:45:22.179Z,-24101.94
2023-04-23T00:47:50.846Z,-24101.88
2023-04-23T00:50:19.085Z,-24101.69
2023-04-23T00:52:47.304Z,-24101.50
2023-04-23T00:55:15.952Z,-24100.75
2023-04-23T00:57:44.167Z,-24100.19
2023-04-23T01:00:14.177Z,-24099.97
2023-04-23T01:02:43.619Z,-24099.50
2023-04-23T01:05:12.421Z,-24099.25
2023-04-23T01:07:42.204Z,-24098.63
2023-04-23T01:10:11.358Z,-24098.14
2023-04-23T01:12:39.831Z,-24097.79
2023-04-23T01:15:09.074Z,-24097.26
2023-04-23T01:17:38.556Z,-24096.70
2023-04-23T01:20:08.554Z,-24096.20
2023-04-23T01:22:37.864Z,-24095.80
2023-04-23T01:25:08.144Z,-24095.11
2023-04-23T01:27:36.675Z,-24094.74
2023-04-23T01:30:06.242Z,-24094.68
2023-04-23T01:32:35.673Z,-24094.71
2023-04-23T01:35:04.905Z,-24094.68
2023-04-23T01:37:34.125Z,-24094.43
2023-04-23T01:40:02.351Z,-24094.15
2023-04-23T01:42:30.830Z,-24093.71
2023-04-23T01:44:58.896Z,-24093.24
2023-04-23T01:47:27.097Z,-24092.53
2023-04-23T01:49:55.525Z,-24092.34
2023-04-23T01:52:23.672Z,-24092.31
2023-04-23T01:54:52.052Z,-24092.25
2023-04-23T01:57:24.405Z,-24091.97
2023-04-23T01:59:54.768Z,-24091.78
2023-04-23T02:02:22.850Z,-24091.19
2023-04-23T02:04:50.973Z,-24090.91
2023-04-23T02:07:19.500Z,-24090.35
2023-04-23T02:09:47.764Z,-24089.91
2023-04-23T02:12:15.900Z,-24089.50
2023-04-23T02:14:44.109Z,-24089.01
2023-04-23T02:17:12.602Z,-24088.64
2023-04-23T02:19:40.937Z,-24087.67
2023-04-23T02:22:09.519Z,-24087.23
2023-04-23T02:24:39.389Z,-24086.95
2023-04-23T02:27:08.483Z,-24086.86
2023-04-23T02:29:37.097Z,-24086.77
2023-04-23T02:32:05.356Z,-24086.42
2023-04-23T02:34:33.589Z,-24085.95
2023-04-23T02:37:02.004Z,-24085.14
2023-04-23T02:39:31.982Z,-24084.24
2023-04-23T02:42:00.174Z,-24083.28
2023-04-23T02:44:28.466Z,-24083.12
2023-04-23T02:46:56.670Z,-24082.80
2023-04-23T02:49:24.991Z,-24082.37
2023-04-23T02:51:53.177Z,-24082.16
2023-04-23T02:54:21.439Z,-24081.59
2023-04-23T02:56:49.595Z,-24081.19
2023-04-23T02:59:18.291Z,-24081.16
2023-04-23T03:01:46.475Z,-24081.09
2023-04-23T03:04:14.799Z,-24081.53
2023-04-23T03:06:43.093Z,-24081.43
2023-04-23T03:09:11.990Z,-24081.00
2023-04-23T03:11:40.570Z,-24080.16
2023-04-23T03:14:09.409Z,-24079.50
2023-04-23T03:16:38.202Z,-24079.22
2023-04-23T03:19:07.358Z,-24079.16
2023-04-23T03:21:35.923Z,-24078.94
2023-04-23T03:24:04.201Z,-24078.35
2023-04-23T03:26:32.570Z,-24077.70
2023-04-23T03:29:00.854Z,-24077.26
2023-04-23T03:31:29.043Z,-24076.95
2023-04-23T03:33:57.273Z,-24076.67
2023-04-23T03:36:30.262Z,-24076.76
2023-04-23T03:38:58.631Z,-24077.11
2023-04-23T03:41:27.595Z,-24077.29
2023-04-23T03:43:56.018Z,-24077.54
2023-04-23T03:46:40.291Z,-24077.79
2023-04-23T03:49:08.557Z,-24077.85
2023-04-23T03:51:37.490Z,-24077.98
2023-04-23T03:54:05.848Z,-24078.04
2023-04-23T03:56:42.372Z,-24078.54
2023-04-23T03:59:19.539Z,-24079.07
2023-04-23T04:01:49.487Z,-24079.04
2023-04-23T04:04:19.920Z,-24079.38
2023-04-23T04:06:50.117Z,-24080.04
2023-04-23T04:09:18.431Z,-24080.54
2023-04-23T04:11:46.937Z,-24080.69
2023-04-23T04:14:17.323Z,-24081.00
2023-04-23T04:16:45.494Z,-24081.56
2023-04-23T04:19:13.582Z,-24082.78
2023-04-23T04:21:41.739Z,-24083.84
2023-04-23T04:24:11.647Z,-24084.71
2023-04-23T04:26:40.295Z,-24084.61
2023-04-23T04:29:10.752Z,-24084.93
2023-04-23T04:31:39.306Z,-24085.92
2023-04-23T04:34:09.177Z,-24087.42
2023-04-23T04:36:37.416Z,-24088.91
2023-04-23T04:39:05.778Z,-24090.16
2023-04-23T04:41:34.002Z,-24091.22
2023-04-23T04:44:02.215Z,-24092.03
2023-04-23T04:46:32.014Z,-24092.21
2023-04-23T04:49:00.297Z,-24091.66
2023-04-23T04:51:28.637Z,-24091.66
2023-04-23T04:53:56.827Z,-24092.34
2023-04-23T04:56:25.944Z,-24092.81
2023-04-23T04:58:54.204Z,-24092.75
2023-04-23T05:01:24.852Z,-24092.78
2023-04-23T05:03:53.883Z,-24093.46
2023-04-23T05:06:22.393Z,-24094.40
2023-04-23T05:08:50.529Z,-24095.49
2023-04-23T05:11:18.925Z,-24097.07
2023-04-23T05:13:48.159Z,-24098.32
2023-04-23T05:16:16.659Z,-24098.82
2023-04-23T05:18:45.016Z,-24099.38
2023-04-23T05:21:13.268Z,-24100.91
2023-04-23T05:23:41.422Z,-24102.81
2023-04-23T05:26:09.741Z,-24104.37
2023-04-23T05:28:38.016Z,-24104.99
2023-04-23T05:31:06.465Z,-24105.11
2023-04-23T05:33:46.281Z,-24105.11
2023-04-23T05:36:17.195Z,-24105.95
2023-04-23T05:38:45.320Z,-24107.32
2023-04-23T05:41:13.400Z,-24109.22
2023-04-23T05:43:41.727Z,-24111.93
2023-04-23T05:46:09.887Z,-24114.58
2023-04-23T05:48:38.319Z,-24116.69
2023-04-23T05:51:06.812Z,-24118.56
2023-04-23T05:53:35.168Z,-24119.50
2023-04-23T05:56:03.337Z,-24121.24
2023-04-23T05:58:31.477Z,-24124.75
2023-04-23T06:00:59.851Z,-24127.06
2023-04-23T06:03:28.182Z,-24128.58
2023-04-23T06:05:56.555Z,-24131.13
2023-04-23T06:08:25.387Z,-24134.27
2023-04-23T06:10:53.709Z,-24137.54
2023-04-23T06:13:22.017Z,-24140.83
2023-04-23T06:15:50.069Z,-24144.13
2023-04-23T06:18:18.807Z,-24147.40
2023-04-23T06:20:48.581Z,-24149.17
2023-04-23T06:23:17.160Z,-24150.63
2023-04-23T06:25:45.334Z,-24152.15
2023-04-23T06:28:13.557Z,-24154.73
2023-04-23T06:30:55.601Z,-24157.53
2023-04-23T06:33:24.266Z,-24159.20
2023-04-23T06:35:52.415Z,-24160.79
2023-04-23T06:38:23.076Z,-24163.46
2023-04-23T06:40:51.246Z,-24166.26
2023-04-23T06:43:19.524Z,-24169.45
2023-04-23T06:46:15.033Z,-24172.43
2023-04-23T06:48:43.138Z,-24174.64
2023-04-23T06:51:11.218Z,-24177.06
2023-04-23T06:53:40.221Z,-24180.76
2023-04-23T06:56:08.730Z,-24184.61
2023-04-23T06:58:37.792Z,-24187.96
2023-04-23T07:01:13.522Z,-24191.93
2023-04-23T07:03:45.232Z,-24195.75
2023-04-23T07:06:13.381Z,-24200.62
2023-04-23T07:08:41.591Z,-24204.12
2023-04-23T07:11:10.819Z,-24206.13
2023-04-23T07:13:39.575Z,-24209.02
2023-04-23T07:16:07.814Z,-24211.38
2023-04-23T07:18:36.067Z,-24213.39
2023-04-23T07:21:04.168Z,-24214.94
2023-04-23T07:23:32.332Z,-24216.14
2023-04-23T07:26:00.698Z,-24216.83
2023-04-23T07:28:29.285Z,-24218.63
2023-04-23T07:30:57.385Z,-24221.36
2023-04-23T07:33:25.639Z,-24224.43
2023-04-23T07:35:53.798Z,-24227.59
2023-04-23T07:38:21.985Z,-24230.56
2023-04-23T07:40:50.061Z,-24233.01
2023-04-23T07:43:18.242Z,-24234.40
2023-04-23T07:45:46.506Z,-24236.51
2023-04-23T07:48:14.739Z,-24240.01
2023-04-23T07:50:42.962Z,-24243.23
2023-04-23T07:53:11.064Z,-24246.01
2023-04-23T07:55:39.421Z,-24247.96
2023-04-23T07:58:08.007Z,-24249.05
2023-04-23T08:00:36.273Z,-24249.51
2023-04-23T08:03:04.433Z,-24250.17
2023-04-23T08:05:32.983Z,-24249.36
2023-04-23T08:08:01.289Z,-24247.68
2023-04-23T08:10:29.894Z,-24247.68
2023-04-23T08:12:58.148Z,-24249.82
2023-04-23T08:15:26.243Z,-24252.77
2023-04-23T08:17:54.482Z,-24254.41
2023-04-23T08:20:22.717Z,-24254.62
2023-04-23T08:22:51.619Z,-24254.31
2023-04-23T08:25:21.054Z,-24253.97
2023-04-23T08:27:50.145Z,-24253.70
2023-04-23T08:30:18.440Z,-24253.60
2023-04-23T08:32:47.998Z,-24252.95
2023-04-23T08:35:16.248Z,-24251.78
2023-04-23T08:37:44.412Z,-24250.88
2023-04-23T08:40:13.313Z,-24251.19
2023-04-23T08:42:51.530Z,-24251.19
2023-04-23T08:45:19.897Z,-24251.40
2023-04-23T08:47:48.123Z,-24252.55
2023-04-23T08:50:18.244Z,-24253.88
2023-04-23T08:52:56.821Z,-24254.75
2023-04-23T08:55:25.229Z,-24255.52
2023-04-23T08:57:53.941Z,-24255.71
2023-04-23T09:00:26.276Z,-24255.55
2023-04-23T09:02:54.730Z,-24256.39
2023-04-23T09:05:23.018Z,-24258.00
2023-04-23T09:07:51.223Z,-24259.67
2023-04-23T09:10:19.353Z,-24261.15
2023-04-23T09:12:48.345Z,-24262.36
2023-04-23T09:15:16.966Z,-24263.00
2023-04-23T09:17:46.808Z,-24263.41
2023-04-23T09:20:15.438Z,-24263.69
2023-04-23T09:22:48.309Z,-24263.66
2023-04-23T09:25:18.703Z,-24263.13
2023-04-23T09:27:47.756Z,-24262.23
2023-04-23T09:30:16.551Z,-24262.11
2023-04-23T09:32:49.574Z,-24262.14
2023-04-23T09:35:20.137Z,-24261.21
2023-04-23T09:37:49.639Z,-24260.10
2023-04-23T09:40:22.314Z,-24259.57
2023-04-23T09:42:52.775Z,-24260.32
2023-04-23T09:45:21.379Z,-24261.21
2023-04-23T09:47:52.427Z,-24262.51
2023-04-23T09:50:31.741Z,-24264.09
2023-04-23T09:53:00.049Z,-24263.96
2023-04-23T09:55:35.529Z,-24264.21
2023-04-23T09:58:04.999Z,-24264.80
2023-04-23T10:00:35.457Z,-24264.95
2023-04-23T10:03:04.280Z,-24265.14
2023-04-23T10:05:50.508Z,-24266.19
2023-04-23T10:08:26.306Z,-24267.83
2023-04-23T10:11:00.029Z,-24268.39
2023-04-23T10:13:31.131Z,-24268.14
2023-04-23T10:16:10.292Z,-24267.62
2023-04-23T10:18:42.564Z,-24267.46
2023-04-23T10:21:10.726Z,-24266.38
2023-04-23T10:23:38.883Z,-24265.54
2023-04-23T10:26:07.276Z,-24265.23
2023-04-23T10:28:35.601Z,-24265.57
2023-04-23T10:31:04.246Z,-24266.29
2023-04-23T10:33:39.767Z,-24266.29
2023-04-23T10:36:11.261Z,-24265.79
2023-04-23T10:38:54.599Z,-24265.05
2023-04-23T10:41:28.147Z,-24264.92
2023-04-23T10:43:56.469Z,-24265.27
2023-04-23T10:46:29.351Z,-24265.76
2023-04-23T10:49:17.035Z,-24266.53
2023-04-23T10:54:19.720Z,-24268.91
2023-04-23T10:56:47.941Z,-24269.25
2023-04-23T10:59:20.752Z,-24269.10
2023-04-23T11:01:50.157Z,-24269.16
2023-04-23T11:04:29.189Z,-24269.22
2023-04-23T11:06:58.759Z,-24269.13
2023-04-23T11:09:31.335Z,-24269.53
2023-04-23T11:12:00.233Z,-24270.40
2023-04-23T11:14:36.386Z,-24271.39
2023-04-23T11:17:05.732Z,-24271.76
2023-04-23T11:19:38.024Z,-24271.95
2023-04-23T11:22:17.522Z,-24271.45
2023-04-23T11:24:48.882Z,-24270.74
2023-04-23T11:27:19.881Z,-24269.47
2023-04-23T11:29:48.067Z,-24268.57
2023-04-23T11:32:17.236Z,-24268.33
2023-04-23T11:34:46.742Z,-24268.11
2023-04-23T11:37:15.599Z,-24267.86
2023-04-23T11:39:45.569Z,-24268.51
2023-04-23T11:42:14.365Z,-24268.98
2023-04-23T11:44:44.741Z,-24269.10
2023-04-23T11:47:14.595Z,-24270.09
2023-04-23T11:49:44.054Z,-24270.34
2023-04-23T11:52:13.027Z,-24270.58
2023-04-23T11:54:41.461Z,-24271.05
2023-04-23T11:57:10.507Z,-24272.04
2023-04-23T11:59:38.793Z,-24273.15
2023-04-23T12:02:07.649Z,-24274.72
2023-04-23T12:04:36.923Z,-24276.30
2023-04-23T12:07:19.342Z,-24277.11
2023-04-23T12:09:53.885Z,-24276.43
2023-04-23T12:12:22.071Z,-24276.43
2023-04-23T12:14:50.276Z,-24277.51
2023-04-23T12:17:18.469Z,-24278.41
2023-04-23T12:19:46.621Z,-24278.62
2023-04-23T12:22:14.826Z,-24278.62
2023-04-23T12:24:47.595Z,-24279.49
2023-04-23T12:27:16.825Z,-24280.29
2023-04-23T12:29:45.014Z,-24281.50
2023-04-23T12:32:13.181Z,-24283.54
2023-04-23T12:34:57.047Z,-24285.95
2023-04-23T12:37:27.025Z,-24287.65
2023-04-23T12:39:56.929Z,-24287.62
2023-04-23T12:42:25.806Z,-24288.02
2023-04-23T12:44:56.417Z,-24288.92
2023-04-23T12:47:24.683Z,-24289.29
2023-04-23T12:49:56.925Z,-24288.64
2023-04-23T12:52:25.214Z,-24288.86
2023-04-23T12:54:56.713Z,-24288.86
2023-04-23T12:57:25.004Z,-24288.42
2023-04-23T12:59:55.036Z,-24287.65
2023-04-23T13:02:24.915Z,-24287.34
2023-04-23T13:04:59.607Z,-24287.18
2023-04-23T13:07:28.350Z,-24286.39
2023-04-23T13:09:57.364Z,-24285.46
2023-04-23T13:12:25.976Z,-24285.21
2023-04-23T13:14:54.112Z,-24285.43
2023-04-23T13:17:23.419Z,-24285.00
2023-04-23T13:19:55.845Z,-24284.81
2023-04-23T13:22:28.488Z,-24284.44
2023-04-23T13:24:59.848Z,-24284.81
2023-04-23T13:27:28.645Z,-24285.24
2023-04-23T13:29:56.895Z,-24285.24
2023-04-23T13:32:27.544Z,-24285.03
2023-04-23T13:34:56.092Z,-24284.56
2023-04-23T13:37:24.705Z,-24283.42
2023-04-23T13:39:52.945Z,-24282.64
2023-04-23T13:42:21.206Z,-24283.05
2023-04-23T13:44:49.360Z,-24284.32
2023-04-23T13:47:17.553Z,-24285.49
2023-04-23T13:49:45.701Z,-24285.92
2023-04-23T13:52:13.801Z,-24286.45
2023-04-23T13:54:42.417Z,-24287.22
2023-04-23T13:57:10.826Z,-24288.09
2023-04-23T13:59:38.901Z,-24288.64
2023-04-23T14:02:07.230Z,-24288.76
2023-04-23T14:04:35.486Z,-24289.01
2023-04-23T14:07:03.573Z,-24289.26
2023-04-23T14:09:31.744Z,-24289.60
2023-04-23T14:12:00.317Z,-24290.37
2023-04-23T14:14:28.792Z,-24290.25
2023-04-23T14:16:56.936Z,-24288.64
2023-04-23T14:19:25.210Z,-24287.34
2023-04-23T14:21:53.651Z,-24287.53
2023-04-23T14:24:28.476Z,-24288.80
2023-04-23T14:26:57.027Z,-24290.87
2023-04-23T14:29:35.178Z,-24292.44
2023-04-23T14:32:03.322Z,-24294.26
2023-04-23T14:34:31.545Z,-24296.05
2023-04-23T14:36:58.453Z,-24297.69
2023-04-23T14:39:26.458Z,-24298.68
2023-04-23T14:41:53.486Z,-24298.65
2023-04-23T14:44:23.434Z,-24299.02
2023-04-23T14:46:51.304Z,-24299.57
2023-04-23T14:49:19.145Z,-24299.97
2023-04-23T14:51:46.204Z,-24300.13
2023-04-23T14:54:13.204Z,-24300.22
2023-04-23T14:56:40.141Z,-24300.44
2023-04-23T14:59:07.206Z,-24300.81
2023-04-23T15:01:34.278Z,-24300.94
2023-04-23T15:04:01.396Z,-24300.63
2023-04-23T15:06:28.603Z,-24301.09
2023-04-23T15:08:55.720Z,-24302.29
2023-04-23T15:11:22.878Z,-24302.85
2023-04-23T15:14:19.704Z,-24303.00
2023-04-23T15:16:49.318Z,-24303.04
2023-04-23T15:19:18.361Z,-24302.66
2023-04-23T15:21:46.303Z,-24302.38
2023-04-23T15:24:13.340Z,-24302.45
2023-04-23T15:26:40.358Z,-24301.64
2023-04-23T15:29:10.496Z,-24299.45
2023-04-23T15:31:38.325Z,-24297.72
2023-04-23T15:34:07.513Z,-24296.98
2023-04-23T15:36:35.823Z,-24297.13
2023-04-23T15:39:02.882Z,-24297.23
2023-04-23T15:41:29.924Z,-24296.61
2023-04-23T15:43:57.030Z,-24295.65
2023-04-23T15:46:24.027Z,-24294.63
2023-04-23T15:48:51.157Z,-24293.83
2023-04-23T15:51:18.119Z,-24292.13
2023-04-23T15:53:45.078Z,-24289.88
2023-04-23T15:56:12.016Z,-24288.18
2023-04-23T15:58:39.044Z,-24286.82
2023-04-23T16:01:07.493Z,-24285.46
2023-04-23T16:03:34.948Z,-24285.12
2023-04-23T16:06:02.377Z,-24284.69
2023-04-23T16:08:29.349Z,-24283.76
2023-04-23T16:10:58.199Z,-24282.52
2023-04-23T16:13:25.386Z,-24281.84
2023-04-23T16:15:52.583Z,-24280.76
2023-04-23T16:18:19.621Z,-24279.02
2023-04-23T16:20:46.732Z,-24277.63
2023-04-23T16:23:14.541Z,-24276.61
2023-04-23T16:25:41.735Z,-24274.79
2023-04-23T16:28:08.861Z,-24271.91
2023-04-23T16:30:35.913Z,-24269.29
2023-04-23T16:33:02.954Z,-24267.46
2023-04-23T16:35:29.905Z,-24265.61
2023-04-23T16:37:56.919Z,-24263.53
2023-04-23T16:40:23.975Z,-24261.24
2023-04-23T16:42:50.990Z,-24259.39
2023-04-23T16:45:22.970Z,-24258.12
2023-04-23T16:47:50.782Z,-24256.82
2023-04-23T16:50:17.832Z,-24254.81
2023-04-23T16:52:44.948Z,-24252.98
2023-04-23T16:55:11.919Z,-24250.63
2023-04-23T16:57:38.858Z,-24248.30
2023-04-23T17:00:06.492Z,-24246.63
2023-04-23T17:02:34.665Z,-24244.99
2023-04-23T17:05:02.098Z,-24243.14
2023-04-23T17:07:29.221Z,-24241.46
2023-04-23T17:09:56.169Z,-24239.42
2023-04-23T17:12:23.153Z,-24237.62
2023-04-23T17:14:50.068Z,-24235.82
2023-04-23T17:17:17.023Z,-24234.09
2023-04-23T17:19:45.802Z,-24232.20
2023-04-23T17:22:12.835Z,-24230.35
2023-04-23T17:24:39.911Z,-24228.52
2023-04-23T17:27:06.920Z,-24227.15
2023-04-23T17:29:33.886Z,-24225.23
2023-04-23T17:32:03.035Z,-24223.16
2023-04-23T17:34:30.050Z,-24221.21
2023-04-23T17:36:57.206Z,-24219.66
2023-04-23T17:39:25.704Z,-24217.89
2023-04-23T17:41:52.867Z,-24215.99
2023-04-23T17:44:19.860Z,-24214.26
2023-04-23T17:46:46.934Z,-24212.71
2023-04-23T17:49:13.959Z,-24211.16
2023-04-23T17:51:40.957Z,-24209.48
2023-04-23T17:54:08.027Z,-24208.06
2023-04-23T17:56:35.067Z,-24206.51
2023-04-23T17:59:02.262Z,-24204.90
2023-04-23T18:01:29.384Z,-24203.19
2023-04-23T18:03:56.604Z,-24201.58
2023-04-23T18:06:23.802Z,-24200.06
2023-04-23T18:08:51.031Z,-24198.66
2023-04-23T18:11:18.700Z,-24196.86
2023-04-23T18:13:45.747Z,-24195.47
2023-04-23T18:16:12.809Z,-24194.19
2023-04-23T18:18:39.778Z,-24192.65
2023-04-23T18:21:06.722Z,-24190.97
2023-04-23T18:23:36.045Z,-24189.08
2023-04-23T18:26:03.156Z,-24187.49
2023-04-23T18:28:30.208Z,-24185.76
2023-04-23T18:31:02.447Z,-24184.23
2023-04-23T18:33:49.612Z,-24182.65
2023-04-23T18:36:32.762Z,-24181.03
2023-04-23T18:38:59.899Z,-24179.14
2023-04-23T18:41:30.061Z,-24177.28
2023-04-23T18:43:57.345Z,-24175.57
2023-04-23T18:46:24.300Z,-24173.58
2023-04-23T18:48:52.574Z,-24171.94
2023-04-23T18:51:21.546Z,-24170.32
2023-04-23T18:53:49.116Z,-24168.52
2023-04-23T18:56:16.215Z,-24167.03
2023-04-23T18:58:43.299Z,-24165.26
2023-04-23T19:01:10.364Z,-24163.21
2023-04-23T19:03:37.544Z,-24161.04
2023-04-23T19:06:07.808Z,-24159.08
2023-04-23T19:08:35.738Z,-24157.46
2023-04-23T19:11:03.089Z,-24155.91
2023-04-23T19:13:30.190Z,-24154.64
2023-04-23T19:15:57.199Z,-24153.55
2023-04-23T19:18:24.300Z,-24152.31
2023-04-23T19:20:51.942Z,-24151.09
2023-04-23T19:23:19.916Z,-24150.04
2023-04-23T19:25:47.001Z,-24148.89
2023-04-23T19:28:14.532Z,-24147.83
2023-04-23T19:30:42.028Z,-24146.84
2023-04-23T19:33:09.105Z,-24145.65
2023-04-23T19:35:39.298Z,-24144.47
2023-04-23T19:38:07.530Z,-24143.38
2023-04-23T19:40:34.997Z,-24142.45
2023-04-23T19:43:02.198Z,-24141.17
2023-04-23T19:45:30.197Z,-24140.18
2023-04-23T19:47:57.400Z,-24139.25
2023-04-23T19:50:25.728Z,-24138.28
2023-04-23T19:52:53.070Z,-24137.25
2023-04-23T19:55:25.155Z,-24136.23
2023-04-23T19:57:52.191Z,-24135.11
2023-04-23T20:00:19.422Z,-24134.12
2023-04-23T20:02:46.903Z,-24133.18
2023-04-23T20:05:14.089Z,-24132.53
2023-04-23T20:07:41.016Z,-24131.72
2023-04-23T20:10:08.360Z,-24131.04
2023-04-23T20:12:35.926Z,-24130.22
2023-04-23T20:15:02.922Z,-24129.48
2023-04-23T20:17:30.205Z,-24128.79
2023-04-23T20:20:01.904Z,-24128.11
2023-04-23T20:22:29.695Z,-24127.40
2023-04-23T20:24:57.149Z,-24126.87
2023-04-23T20:27:24.123Z,-24126.03
2023-04-23T20:29:51.579Z,-24125.22
2023-04-23T20:32:18.532Z,-24124.60
2023-04-23T20:34:45.683Z,-24124.16
2023-04-23T20:37:12.705Z,-24123.45
2023-04-23T20:39:39.757Z,-24122.51
2023-04-23T20:42:07.248Z,-24121.67
2023-04-23T20:44:34.527Z,-24120.52
2023-04-23T20:47:04.983Z,-24119.53
2023-04-23T20:49:32.569Z,-24118.71
2023-04-23T20:52:00.009Z,-24117.72
2023-04-23T20:54:27.162Z,-24116.72
2023-04-23T20:56:54.417Z,-24115.95
2023-04-23T20:59:21.966Z,-24114.89
2023-04-23T21:01:49.757Z,-24114.08
2023-04-23T21:04:17.263Z,-24113.36
2023-04-23T21:06:44.668Z,-24112.46
2023-04-23T21:09:11.692Z,-24111.75
2023-04-23T21:11:38.641Z,-24110.97
2023-04-23T21:14:08.921Z,-24110.16
2023-04-23T21:16:36.957Z,-24109.75
2023-04-23T21:19:04.739Z,-24109.19
2023-04-23T21:21:32.587Z,-24108.69
2023-04-23T21:24:00.865Z,-24108.29
2023-04-23T21:26:31.175Z,-24108.11
2023-04-23T21:28:58.508Z,-24107.92
2023-04-23T21:31:47.227Z,-24107.60
2023-04-23T21:34:14.743Z,-24107.04
2023-04-23T21:36:41.907Z,-24106.89
2023-04-23T21:39:12.341Z,-24106.45
2023-04-23T21:41:39.978Z,-24106.08
2023-04-23T21:44:07.238Z,-24105.64
2023-04-23T21:46:34.257Z,-24104.96
2023-04-23T21:49:02.494Z,-24104.37
2023-04-23T21:51:30.193Z,-24103.87
2023-04-23T21:53:57.317Z,-24103.40
2023-04-23T21:56:24.320Z,-24102.94
2023-04-23T21:58:51.276Z,-24102.28
2023-04-23T22:01:18.456Z,-24101.69
2023-04-23T22:03:47.108Z,-24100.50
2023-04-23T22:06:15.808Z,-24099.41
2023-04-23T22:08:44.919Z,-24097.63
2023-04-23T22:11:12.237Z,-24095.98
2023-04-23T22:13:39.275Z,-24094.12
2023-04-23T22:16:10.844Z,-24091.96
2023-04-23T22:18:47.464Z,-24089.79
2023-04-23T22:21:14.464Z,-24087.85
2023-04-23T22:23:41.356Z,-24086.11
2023-04-23T22:26:08.346Z,-24084.52
2023-04-23T22:28:35.509Z,-24083.09
2023-04-23T22:31:02.489Z,-24081.46
2023-04-23T22:33:30.112Z,-24080.25
2023-04-23T22:35:57.026Z,-24079.32
2023-04-23T22:38:23.962Z,-24077.76
2023-04-23T22:40:51.287Z,-24076.54
2023-04-23T22:43:18.323Z,-24075.61
2023-04-23T22:45:45.605Z,-24074.70
2023-04-23T22:48:12.765Z,-24073.58
2023-04-23T22:50:40.220Z,-24072.77
2023-04-23T22:53:07.143Z,-24072.09
2023-04-23T22:55:34.483Z,-24071.61
2023-04-23T22:58:01.470Z,-24071.40
2023-04-23T23:00:28.431Z,-24071.09
2023-04-23T23:02:55.985Z,-24070.96
2023-04-23T23:05:22.988Z,-24070.81
2023-04-23T23:07:50.315Z,-24070.65
2023-04-23T23:10:17.303Z,-24070.50
2023-04-23T23:12:44.362Z,-24070.37
2023-04-23T23:15:11.918Z,-24069.78
2023-04-23T23:17:39.046Z,-24069.19
2023-04-23T23:20:09.381Z,-24068.44
2023-04-23T23:22:36.444Z,-24067.78
2023-04-23T23:25:04.146Z,-24066.97
2023-04-23T23:27:31.212Z,-24064.76
2023-04-23T23:29:58.116Z,-24062.11
2023-04-23T23:32:25.082Z,-24060.33
2023-04-23T23:34:52.215Z,-24058.96
2023-04-23T23:37:19.439Z,-24058.02
2023-04-23T23:39:46.353Z,-24057.53
2023-04-23T23:42:13.301Z,-24056.93
2023-04-23T23:44:40.284Z,-24056.40
2023-04-23T23:47:07.331Z,-24055.68
2023-04-23T23:49:34.426Z,-24055.24
2023-04-23T23:52:01.539Z,-24054.66
2023-04-23T23:54:28.484Z,-24054.34
2023-04-23T23:56:57.322Z,-24054.31
2023-04-23T23:59:24.268Z,-24054.38
